sensor_id;sensor_type;location;lat;lon;timestamp;P1;durP1;ratioP1;P2;durP2;ratioP2
37715;SDS011;23562;50.540;12.504;2023-02-18T00:01:45;9.30;;;6.33;;
37715;SDS011;23562;50.540;12.504;2023-02-18T00:04:10;9.33;;;6.23;;
37715;SDS011;23562;50.540;12.504;2023-02-18T00:06:36;9.80;;;6.50;;
37715;SDS011;23562;50.540;12.504;2023-02-18T00:09:03;12.45;;;6.90;;
37715;SDS011;23562;50.540;12.504;2023-02-18T00:11:31;10.85;;;7.15;;
37715;SDS011;23562;50.540;12.504;2023-02-18T00:13:57;10.73;;;7.07;;
37715;SDS011;23562;50.540;12.504;2023-02-18T00:16:23;10.75;;;7.03;;
37715;SDS011;23562;50.540;12.504;2023-02-18T00:18:49;10.15;;;6.65;;
37715;SDS011;23562;50.540;12.504;2023-02-18T00:21:14;10.48;;;6.82;;
37715;SDS011;23562;50.540;12.504;2023-02-18T00:23:40;9.90;;;6.63;;
37715;SDS011;23562;50.540;12.504;2023-02-18T00:26:06;9.23;;;6.30;;
37715;SDS011;23562;50.540;12.504;2023-02-18T00:28:32;12.52;;;6.75;;
37715;SDS011;23562;50.540;12.504;2023-02-18T00:30:57;9.55;;;6.80;;
37715;SDS011;23562;50.540;12.504;2023-02-18T00:33:22;9.05;;;6.28;;
37715;SDS011;23562;50.540;12.504;2023-02-18T00:35:48;9.80;;;6.80;;
37715;SDS011;23562;50.540;12.504;2023-02-18T00:38:13;10.98;;;7.45;;
37715;SDS011;23562;50.540;12.504;2023-02-18T00:40:38;10.55;;;6.95;;
37715;SDS011;23562;50.540;12.504;2023-02-18T00:43:04;11.45;;;6.57;;
37715;SDS011;23562;50.540;12.504;2023-02-18T00:45:29;10.50;;;7.30;;
37715;SDS011;23562;50.540;12.504;2023-02-18T00:47:54;11.65;;;6.25;;
37715;SDS011;23562;50.540;12.504;2023-02-18T00:50:19;9.77;;;6.85;;
37715;SDS011;23562;50.540;12.504;2023-02-18T00:52:44;12.93;;;6.60;;
37715;SDS011;23562;50.540;12.504;2023-02-18T00:55:09;9.70;;;6.65;;
37715;SDS011;23562;50.540;12.504;2023-02-18T00:57:34;8.73;;;7.03;;
37715;SDS011;23562;50.540;12.504;2023-02-18T00:59:59;10.38;;;7.07;;
37715;SDS011;23562;50.540;12.504;2023-02-18T01:02:24;13.88;;;7.75;;
37715;SDS011;23562;50.540;12.504;2023-02-18T01:04:50;9.32;;;6.90;;
37715;SDS011;23562;50.540;12.504;2023-02-18T01:07:15;11.48;;;6.82;;
37715;SDS011;23562;50.540;12.504;2023-02-18T01:09:40;9.95;;;6.70;;
37715;SDS011;23562;50.540;12.504;2023-02-18T01:12:05;12.75;;;6.93;;
37715;SDS011;23562;50.540;12.504;2023-02-18T01:14:30;14.57;;;6.65;;
37715;SDS011;23562;50.540;12.504;2023-02-18T01:16:55;7.88;;;6.07;;
37715;SDS011;23562;50.540;12.504;2023-02-18T01:19:20;10.05;;;7.22;;
37715;SDS011;23562;50.540;12.504;2023-02-18T01:21:46;10.82;;;6.60;;
37715;SDS011;23562;50.540;12.504;2023-02-18T01:24:11;9.87;;;6.63;;
37715;SDS011;23562;50.540;12.504;2023-02-18T01:26:36;13.05;;;7.25;;
37715;SDS011;23562;50.540;12.504;2023-02-18T01:29:01;10.10;;;6.93;;
37715;SDS011;23562;50.540;12.504;2023-02-18T01:31:26;12.40;;;6.82;;
37715;SDS011;23562;50.540;12.504;2023-02-18T01:33:51;10.75;;;6.97;;
37715;SDS011;23562;50.540;12.504;2023-02-18T01:36:16;10.52;;;6.95;;
37715;SDS011;23562;50.540;12.504;2023-02-18T01:38:42;12.57;;;7.50;;
37715;SDS011;23562;50.540;12.504;2023-02-18T01:41:07;12.87;;;7.83;;
37715;SDS011;23562;50.540;12.504;2023-02-18T01:43:32;12.88;;;7.80;;
37715;SDS011;23562;50.540;12.504;2023-02-18T01:48:24;11.40;;;7.22;;
37715;SDS011;23562;50.540;12.504;2023-02-18T01:51:02;11.98;;;7.25;;
37715;SDS011;23562;50.540;12.504;2023-02-18T01:53:35;10.20;;;7.32;;
37715;SDS011;23562;50.540;12.504;2023-02-18T01:56:01;13.85;;;7.13;;
37715;SDS011;23562;50.540;12.504;2023-02-18T01:58:27;10.95;;;7.47;;
37715;SDS011;23562;50.540;12.504;2023-02-18T02:00:52;11.40;;;7.30;;
37715;SDS011;23562;50.540;12.504;2023-02-18T02:03:17;10.75;;;7.10;;
37715;SDS011;23562;50.540;12.504;2023-02-18T02:05:43;10.57;;;7.72;;
37715;SDS011;23562;50.540;12.504;2023-02-18T02:08:08;11.15;;;7.35;;
37715;SDS011;23562;50.540;12.504;2023-02-18T02:10:42;11.95;;;7.85;;
37715;SDS011;23562;50.540;12.504;2023-02-18T02:13:15;13.13;;;8.05;;
37715;SDS011;23562;50.540;12.504;2023-02-18T02:15:44;14.02;;;7.82;;
37715;SDS011;23562;50.540;12.504;2023-02-18T02:18:15;9.75;;;7.50;;
37715;SDS011;23562;50.540;12.504;2023-02-18T02:23:33;11.88;;;8.20;;
37715;SDS011;23562;50.540;12.504;2023-02-18T02:31:25;13.18;;;8.80;;
37715;SDS011;23562;50.540;12.504;2023-02-18T02:36:37;12.45;;;8.52;;
37715;SDS011;23562;50.540;12.504;2023-02-18T02:39:08;12.95;;;8.50;;
37715;SDS011;23562;50.540;12.504;2023-02-18T02:44:25;15.10;;;8.52;;
37715;SDS011;23562;50.540;12.504;2023-02-18T02:46:54;12.88;;;8.40;;
37715;SDS011;23562;50.540;12.504;2023-02-18T02:51:58;11.35;;;8.27;;
37715;SDS011;23562;50.540;12.504;2023-02-18T02:54:25;12.70;;;8.30;;
37715;SDS011;23562;50.540;12.504;2023-02-18T02:57:03;12.18;;;8.50;;
37715;SDS011;23562;50.540;12.504;2023-02-18T02:59:29;14.98;;;8.05;;
37715;SDS011;23562;50.540;12.504;2023-02-18T03:02:02;14.02;;;8.25;;
37715;SDS011;23562;50.540;12.504;2023-02-18T03:04:32;10.85;;;7.25;;
37715;SDS011;23562;50.540;12.504;2023-02-18T03:07:10;11.25;;;7.57;;
37715;SDS011;23562;50.540;12.504;2023-02-18T03:09:54;12.90;;;8.05;;
37715;SDS011;23562;50.540;12.504;2023-02-18T03:12:45;14.18;;;8.05;;
37715;SDS011;23562;50.540;12.504;2023-02-18T03:15:15;11.27;;;7.60;;
37715;SDS011;23562;50.540;12.504;2023-02-18T03:17:45;11.07;;;7.88;;
37715;SDS011;23562;50.540;12.504;2023-02-18T03:20:14;13.60;;;7.97;;
37715;SDS011;23562;50.540;12.504;2023-02-18T03:22:42;10.90;;;7.88;;
37715;SDS011;23562;50.540;12.504;2023-02-18T03:25:08;13.25;;;7.82;;
37715;SDS011;23562;50.540;12.504;2023-02-18T03:27:36;10.63;;;7.25;;
37715;SDS011;23562;50.540;12.504;2023-02-18T03:30:05;15.35;;;8.00;;
37715;SDS011;23562;50.540;12.504;2023-02-18T03:32:31;14.10;;;7.47;;
37715;SDS011;23562;50.540;12.504;2023-02-18T03:35:00;13.73;;;7.93;;
37715;SDS011;23562;50.540;12.504;2023-02-18T03:37:26;12.30;;;7.75;;
37715;SDS011;23562;50.540;12.504;2023-02-18T03:39:54;10.63;;;7.55;;
37715;SDS011;23562;50.540;12.504;2023-02-18T03:42:23;11.98;;;7.90;;
37715;SDS011;23562;50.540;12.504;2023-02-18T03:44:49;9.95;;;7.78;;
37715;SDS011;23562;50.540;12.504;2023-02-18T03:47:14;11.95;;;8.15;;
37715;SDS011;23562;50.540;12.504;2023-02-18T03:49:39;10.15;;;7.43;;
37715;SDS011;23562;50.540;12.504;2023-02-18T03:52:04;9.65;;;6.88;;
37715;SDS011;23562;50.540;12.504;2023-02-18T03:54:29;10.38;;;7.10;;
37715;SDS011;23562;50.540;12.504;2023-02-18T03:56:54;10.07;;;7.10;;
37715;SDS011;23562;50.540;12.504;2023-02-18T03:59:19;13.07;;;7.13;;
37715;SDS011;23562;50.540;12.504;2023-02-18T04:01:44;9.98;;;6.70;;
37715;SDS011;23562;50.540;12.504;2023-02-18T04:04:10;10.70;;;7.05;;
37715;SDS011;23562;50.540;12.504;2023-02-18T04:06:35;10.98;;;7.60;;
37715;SDS011;23562;50.540;12.504;2023-02-18T04:09:00;9.32;;;6.97;;
37715;SDS011;23562;50.540;12.504;2023-02-18T04:11:26;10.57;;;6.55;;
37715;SDS011;23562;50.540;12.504;2023-02-18T04:13:51;10.15;;;6.75;;
37715;SDS011;23562;50.540;12.504;2023-02-18T04:16:16;11.57;;;7.22;;
37715;SDS011;23562;50.540;12.504;2023-02-18T04:18:42;11.88;;;6.80;;
37715;SDS011;23562;50.540;12.504;2023-02-18T04:21:07;9.63;;;6.63;;
37715;SDS011;23562;50.540;12.504;2023-02-18T04:23:32;11.60;;;6.95;;
37715;SDS011;23562;50.540;12.504;2023-02-18T04:25:57;10.10;;;7.13;;
37715;SDS011;23562;50.540;12.504;2023-02-18T04:28:22;9.38;;;6.50;;
37715;SDS011;23562;50.540;12.504;2023-02-18T04:30:47;8.80;;;6.45;;
37715;SDS011;23562;50.540;12.504;2023-02-18T04:33:13;7.83;;;6.43;;
37715;SDS011;23562;50.540;12.504;2023-02-18T04:35:38;9.88;;;6.13;;
37715;SDS011;23562;50.540;12.504;2023-02-18T04:38:05;9.15;;;6.25;;
37715;SDS011;23562;50.540;12.504;2023-02-18T04:40:30;9.40;;;6.30;;
37715;SDS011;23562;50.540;12.504;2023-02-18T04:42:56;11.27;;;6.50;;
37715;SDS011;23562;50.540;12.504;2023-02-18T04:45:21;9.05;;;6.35;;
37715;SDS011;23562;50.540;12.504;2023-02-18T04:47:46;8.75;;;5.95;;
37715;SDS011;23562;50.540;12.504;2023-02-18T04:50:11;9.85;;;6.30;;
37715;SDS011;23562;50.540;12.504;2023-02-18T04:52:37;9.17;;;6.50;;
37715;SDS011;23562;50.540;12.504;2023-02-18T04:55:02;8.18;;;6.28;;
37715;SDS011;23562;50.540;12.504;2023-02-18T04:57:27;12.27;;;6.45;;
37715;SDS011;23562;50.540;12.504;2023-02-18T04:59:52;9.40;;;6.80;;
37715;SDS011;23562;50.540;12.504;2023-02-18T05:02:17;10.27;;;7.23;;
37715;SDS011;23562;50.540;12.504;2023-02-18T05:04:43;9.03;;;6.77;;
37715;SDS011;23562;50.540;12.504;2023-02-18T05:07:08;10.97;;;7.70;;
37715;SDS011;23562;50.540;12.504;2023-02-18T05:09:33;12.52;;;7.70;;
37715;SDS011;23562;50.540;12.504;2023-02-18T05:11:58;13.73;;;8.10;;
37715;SDS011;23562;50.540;12.504;2023-02-18T05:14:23;14.52;;;7.95;;
37715;SDS011;23562;50.540;12.504;2023-02-18T05:16:48;11.25;;;7.53;;
37715;SDS011;23562;50.540;12.504;2023-02-18T05:19:14;9.80;;;7.03;;
37715;SDS011;23562;50.540;12.504;2023-02-18T05:21:39;10.73;;;6.72;;
37715;SDS011;23562;50.540;12.504;2023-02-18T05:24:04;10.27;;;7.07;;
37715;SDS011;23562;50.540;12.504;2023-02-18T05:26:29;9.50;;;6.57;;
37715;SDS011;23562;50.540;12.504;2023-02-18T05:28:54;8.95;;;6.63;;
37715;SDS011;23562;50.540;12.504;2023-02-18T05:31:21;7.95;;;6.20;;
37715;SDS011;23562;50.540;12.504;2023-02-18T05:33:46;10.05;;;5.97;;
37715;SDS011;23562;50.540;12.504;2023-02-18T05:36:11;7.75;;;6.10;;
37715;SDS011;23562;50.540;12.504;2023-02-18T05:38:36;8.88;;;6.03;;
37715;SDS011;23562;50.540;12.504;2023-02-18T05:41:01;9.18;;;5.80;;
37715;SDS011;23562;50.540;12.504;2023-02-18T05:43:26;9.63;;;5.88;;
37715;SDS011;23562;50.540;12.504;2023-02-18T05:45:51;7.22;;;5.53;;
37715;SDS011;23562;50.540;12.504;2023-02-18T05:48:17;7.72;;;6.15;;
37715;SDS011;23562;50.540;12.504;2023-02-18T05:50:42;8.33;;;5.97;;
37715;SDS011;23562;50.540;12.504;2023-02-18T05:53:07;9.03;;;5.83;;
37715;SDS011;23562;50.540;12.504;2023-02-18T05:55:32;8.80;;;5.70;;
37715;SDS011;23562;50.540;12.504;2023-02-18T05:58:02;8.60;;;6.10;;
37715;SDS011;23562;50.540;12.504;2023-02-18T06:00:27;10.20;;;6.38;;
37715;SDS011;23562;50.540;12.504;2023-02-18T06:02:54;8.65;;;6.50;;
37715;SDS011;23562;50.540;12.504;2023-02-18T06:05:19;7.07;;;6.05;;
37715;SDS011;23562;50.540;12.504;2023-02-18T06:07:44;8.80;;;6.43;;
37715;SDS011;23562;50.540;12.504;2023-02-18T06:10:10;9.45;;;6.20;;
37715;SDS011;23562;50.540;12.504;2023-02-18T06:12:35;9.30;;;6.95;;
37715;SDS011;23562;50.540;12.504;2023-02-18T06:15:00;7.90;;;6.00;;
37715;SDS011;23562;50.540;12.504;2023-02-18T06:17:25;8.35;;;6.10;;
37715;SDS011;23562;50.540;12.504;2023-02-18T06:19:50;11.57;;;6.82;;
37715;SDS011;23562;50.540;12.504;2023-02-18T06:22:15;7.97;;;6.20;;
37715;SDS011;23562;50.540;12.504;2023-02-18T06:24:40;8.77;;;5.80;;
37715;SDS011;23562;50.540;12.504;2023-02-18T06:27:06;10.23;;;6.50;;
37715;SDS011;23562;50.540;12.504;2023-02-18T06:29:31;9.57;;;7.30;;
37715;SDS011;23562;50.540;12.504;2023-02-18T06:31:59;11.50;;;8.05;;
37715;SDS011;23562;50.540;12.504;2023-02-18T06:34:25;7.63;;;6.25;;
37715;SDS011;23562;50.540;12.504;2023-02-18T06:36:50;8.68;;;6.80;;
37715;SDS011;23562;50.540;12.504;2023-02-18T06:39:16;8.52;;;7.00;;
37715;SDS011;23562;50.540;12.504;2023-02-18T06:41:41;11.23;;;7.30;;
37715;SDS011;23562;50.540;12.504;2023-02-18T06:44:06;9.83;;;6.77;;
37715;SDS011;23562;50.540;12.504;2023-02-18T06:46:31;9.43;;;6.85;;
37715;SDS011;23562;50.540;12.504;2023-02-18T06:48:57;10.40;;;6.97;;
37715;SDS011;23562;50.540;12.504;2023-02-18T06:51:22;10.32;;;7.00;;
37715;SDS011;23562;50.540;12.504;2023-02-18T06:53:48;11.38;;;7.80;;
37715;SDS011;23562;50.540;12.504;2023-02-18T06:56:13;9.68;;;6.65;;
37715;SDS011;23562;50.540;12.504;2023-02-18T06:58:38;7.90;;;6.50;;
37715;SDS011;23562;50.540;12.504;2023-02-18T07:01:03;8.37;;;6.40;;
37715;SDS011;23562;50.540;12.504;2023-02-18T07:03:29;7.70;;;6.43;;
37715;SDS011;23562;50.540;12.504;2023-02-18T07:05:54;8.70;;;6.53;;
37715;SDS011;23562;50.540;12.504;2023-02-18T07:08:19;8.52;;;6.18;;
37715;SDS011;23562;50.540;12.504;2023-02-18T07:10:45;8.40;;;6.73;;
37715;SDS011;23562;50.540;12.504;2023-02-18T07:13:10;11.15;;;6.80;;
37715;SDS011;23562;50.540;12.504;2023-02-18T07:15:36;9.07;;;6.50;;
37715;SDS011;23562;50.540;12.504;2023-02-18T07:18:01;11.10;;;6.50;;
37715;SDS011;23562;50.540;12.504;2023-02-18T07:20:26;7.90;;;5.80;;
37715;SDS011;23562;50.540;12.504;2023-02-18T07:22:52;10.05;;;6.88;;
37715;SDS011;23562;50.540;12.504;2023-02-18T07:25:17;10.68;;;6.45;;
37715;SDS011;23562;50.540;12.504;2023-02-18T07:27:42;12.20;;;6.93;;
37715;SDS011;23562;50.540;12.504;2023-02-18T07:30:07;10.43;;;6.90;;
37715;SDS011;23562;50.540;12.504;2023-02-18T07:32:33;9.25;;;6.38;;
37715;SDS011;23562;50.540;12.504;2023-02-18T07:34:58;8.57;;;5.38;;
37715;SDS011;23562;50.540;12.504;2023-02-18T07:37:23;6.05;;;4.78;;
37715;SDS011;23562;50.540;12.504;2023-02-18T07:39:49;6.80;;;4.63;;
37715;SDS011;23562;50.540;12.504;2023-02-18T07:42:14;6.53;;;4.63;;
37715;SDS011;23562;50.540;12.504;2023-02-18T07:44:39;5.85;;;3.92;;
37715;SDS011;23562;50.540;12.504;2023-02-18T07:47:06;5.47;;;4.10;;
37715;SDS011;23562;50.540;12.504;2023-02-18T07:49:32;4.32;;;3.70;;
37715;SDS011;23562;50.540;12.504;2023-02-18T07:51:57;4.70;;;3.30;;
37715;SDS011;23562;50.540;12.504;2023-02-18T07:54:22;3.47;;;2.83;;
37715;SDS011;23562;50.540;12.504;2023-02-18T07:56:47;4.70;;;2.92;;
37715;SDS011;23562;50.540;12.504;2023-02-18T07:59:13;3.67;;;2.80;;
37715;SDS011;23562;50.540;12.504;2023-02-18T08:01:38;3.88;;;2.47;;
37715;SDS011;23562;50.540;12.504;2023-02-18T08:04:04;4.20;;;2.92;;
37715;SDS011;23562;50.540;12.504;2023-02-18T08:06:30;7.75;;;3.60;;
37715;SDS011;23562;50.540;12.504;2023-02-18T08:08:57;3.72;;;2.85;;
37715;SDS011;23562;50.540;12.504;2023-02-18T08:11:22;4.03;;;2.30;;
37715;SDS011;23562;50.540;12.504;2023-02-18T08:13:48;5.32;;;1.90;;
37715;SDS011;23562;50.540;12.504;2023-02-18T08:16:13;3.60;;;2.00;;
37715;SDS011;23562;50.540;12.504;2023-02-18T08:18:38;3.30;;;2.05;;
37715;SDS011;23562;50.540;12.504;2023-02-18T08:21:04;3.63;;;1.77;;
37715;SDS011;23562;50.540;12.504;2023-02-18T08:23:29;1.58;;;1.42;;
37715;SDS011;23562;50.540;12.504;2023-02-18T08:25:54;1.55;;;1.42;;
37715;SDS011;23562;50.540;12.504;2023-02-18T08:28:20;4.22;;;3.25;;
37715;SDS011;23562;50.540;12.504;2023-02-18T08:30:46;2.60;;;1.52;;
37715;SDS011;23562;50.540;12.504;2023-02-18T08:33:11;3.45;;;1.83;;
37715;SDS011;23562;50.540;12.504;2023-02-18T08:35:37;3.70;;;2.38;;
37715;SDS011;23562;50.540;12.504;2023-02-18T08:38:03;3.13;;;2.20;;
37715;SDS011;23562;50.540;12.504;2023-02-18T08:40:28;4.05;;;2.55;;
37715;SDS011;23562;50.540;12.504;2023-02-18T08:42:53;3.63;;;1.85;;
37715;SDS011;23562;50.540;12.504;2023-02-18T08:45:19;1.93;;;1.50;;
37715;SDS011;23562;50.540;12.504;2023-02-18T08:47:44;2.50;;;1.60;;
37715;SDS011;23562;50.540;12.504;2023-02-18T08:50:09;5.13;;;3.53;;
37715;SDS011;23562;50.540;12.504;2023-02-18T08:52:35;6.85;;;6.18;;
37715;SDS011;23562;50.540;12.504;2023-02-18T08:55:00;2.60;;;1.90;;
37715;SDS011;23562;50.540;12.504;2023-02-18T08:57:26;2.10;;;1.87;;
37715;SDS011;23562;50.540;12.504;2023-02-18T08:59:51;1.40;;;1.30;;
37715;SDS011;23562;50.540;12.504;2023-02-18T09:02:16;1.60;;;1.50;;
37715;SDS011;23562;50.540;12.504;2023-02-18T09:04:41;2.67;;;1.90;;
37715;SDS011;23562;50.540;12.504;2023-02-18T09:07:06;2.30;;;1.60;;
37715;SDS011;23562;50.540;12.504;2023-02-18T09:09:32;1.83;;;1.35;;
37715;SDS011;23562;50.540;12.504;2023-02-18T09:11:57;6.75;;;2.75;;
37715;SDS011;23562;50.540;12.504;2023-02-18T09:14:22;1.83;;;1.60;;
37715;SDS011;23562;50.540;12.504;2023-02-18T09:16:47;3.78;;;2.10;;
37715;SDS011;23562;50.540;12.504;2023-02-18T09:19:14;13.50;;;9.00;;
37715;SDS011;23562;50.540;12.504;2023-02-18T09:21:39;16.77;;;7.72;;
37715;SDS011;23562;50.540;12.504;2023-02-18T09:24:04;11.35;;;4.90;;
37715;SDS011;23562;50.540;12.504;2023-02-18T09:26:30;8.03;;;4.03;;
37715;SDS011;23562;50.540;12.504;2023-02-18T09:28:55;7.88;;;4.28;;
37715;SDS011;23562;50.540;12.504;2023-02-18T09:31:21;8.10;;;5.87;;
37715;SDS011;23562;50.540;12.504;2023-02-18T09:33:48;8.02;;;4.38;;
37715;SDS011;23562;50.540;12.504;2023-02-18T09:36:14;3.97;;;3.03;;
37715;SDS011;23562;50.540;12.504;2023-02-18T09:38:40;6.13;;;4.22;;
37715;SDS011;23562;50.540;12.504;2023-02-18T09:41:06;2.63;;;2.43;;
37715;SDS011;23562;50.540;12.504;2023-02-18T09:43:38;3.17;;;2.47;;
37715;SDS011;23562;50.540;12.504;2023-02-18T09:46:11;2.40;;;2.10;;
37715;SDS011;23562;50.540;12.504;2023-02-18T09:48:40;3.45;;;2.20;;
37715;SDS011;23562;50.540;12.504;2023-02-18T09:51:09;1.60;;;1.50;;
37715;SDS011;23562;50.540;12.504;2023-02-18T09:53:36;2.00;;;1.30;;
37715;SDS011;23562;50.540;12.504;2023-02-18T09:56:01;4.93;;;2.67;;
37715;SDS011;23562;50.540;12.504;2023-02-18T09:58:27;11.90;;;10.73;;
37715;SDS011;23562;50.540;12.504;2023-02-18T10:00:58;10.82;;;9.77;;
37715;SDS011;23562;50.540;12.504;2023-02-18T10:03:25;9.80;;;8.90;;
37715;SDS011;23562;50.540;12.504;2023-02-18T10:05:57;4.43;;;3.58;;
37715;SDS011;23562;50.540;12.504;2023-02-18T10:08:43;6.85;;;4.10;;
37715;SDS011;23562;50.540;12.504;2023-02-18T10:11:16;5.97;;;4.80;;
37715;SDS011;23562;50.540;12.504;2023-02-18T10:13:42;7.80;;;5.50;;
37715;SDS011;23562;50.540;12.504;2023-02-18T10:16:08;7.72;;;5.75;;
37715;SDS011;23562;50.540;12.504;2023-02-18T10:18:40;6.70;;;5.43;;
37715;SDS011;23562;50.540;12.504;2023-02-18T10:21:19;10.68;;;6.07;;
37715;SDS011;23562;50.540;12.504;2023-02-18T10:24:04;8.77;;;5.45;;
37715;SDS011;23562;50.540;12.504;2023-02-18T10:26:31;8.68;;;6.35;;
37715;SDS011;23562;50.540;12.504;2023-02-18T10:28:57;9.55;;;6.32;;
37715;SDS011;23562;50.540;12.504;2023-02-18T10:31:33;9.90;;;6.50;;
37715;SDS011;23562;50.540;12.504;2023-02-18T10:34:03;7.60;;;5.70;;
37715;SDS011;23562;50.540;12.504;2023-02-18T10:36:35;7.50;;;5.38;;
37715;SDS011;23562;50.540;12.504;2023-02-18T10:44:16;8.30;;;5.97;;
37715;SDS011;23562;50.540;12.504;2023-02-18T10:51:35;8.80;;;6.23;;
37715;SDS011;23562;50.540;12.504;2023-02-18T10:54:01;10.63;;;6.95;;
37715;SDS011;23562;50.540;12.504;2023-02-18T10:59:11;9.93;;;5.85;;
37715;SDS011;23562;50.540;12.504;2023-02-18T11:01:37;8.45;;;5.65;;
37715;SDS011;23562;50.540;12.504;2023-02-18T11:04:06;13.60;;;8.32;;
37715;SDS011;23562;50.540;12.504;2023-02-18T11:06:39;9.85;;;6.90;;
37715;SDS011;23562;50.540;12.504;2023-02-18T11:09:05;8.52;;;6.50;;
37715;SDS011;23562;50.540;12.504;2023-02-18T11:11:32;8.55;;;6.53;;
37715;SDS011;23562;50.540;12.504;2023-02-18T11:13:59;15.00;;;9.55;;
37715;SDS011;23562;50.540;12.504;2023-02-18T11:16:38;21.52;;;11.57;;
37715;SDS011;23562;50.540;12.504;2023-02-18T11:19:03;25.67;;;11.60;;
37715;SDS011;23562;50.540;12.504;2023-02-18T11:21:30;13.18;;;9.15;;
37715;SDS011;23562;50.540;12.504;2023-02-18T11:23:56;20.98;;;9.90;;
37715;SDS011;23562;50.540;12.504;2023-02-18T11:26:30;12.30;;;8.50;;
37715;SDS011;23562;50.540;12.504;2023-02-18T11:29:00;14.52;;;8.25;;
37715;SDS011;23562;50.540;12.504;2023-02-18T11:31:43;12.82;;;8.20;;
37715;SDS011;23562;50.540;12.504;2023-02-18T11:34:19;12.95;;;8.90;;
37715;SDS011;23562;50.540;12.504;2023-02-18T11:36:49;17.38;;;9.25;;
37715;SDS011;23562;50.540;12.504;2023-02-18T11:41:41;13.98;;;7.63;;
37715;SDS011;23562;50.540;12.504;2023-02-18T11:44:16;13.00;;;8.15;;
37715;SDS011;23562;50.540;12.504;2023-02-18T11:46:54;14.68;;;8.85;;
37715;SDS011;23562;50.540;12.504;2023-02-18T11:49:21;11.40;;;7.65;;
37715;SDS011;23562;50.540;12.504;2023-02-18T11:51:48;10.90;;;7.22;;
37715;SDS011;23562;50.540;12.504;2023-02-18T11:54:25;14.95;;;8.40;;
37715;SDS011;23562;50.540;12.504;2023-02-18T11:56:55;14.73;;;9.40;;
37715;SDS011;23562;50.540;12.504;2023-02-18T11:59:21;12.45;;;8.73;;
37715;SDS011;23562;50.540;12.504;2023-02-18T12:01:52;22.05;;;12.10;;
37715;SDS011;23562;50.540;12.504;2023-02-18T12:04:20;16.45;;;9.60;;
37715;SDS011;23562;50.540;12.504;2023-02-18T12:06:51;19.73;;;10.52;;
37715;SDS011;23562;50.540;12.504;2023-02-18T12:09:34;13.13;;;7.47;;
37715;SDS011;23562;50.540;12.504;2023-02-18T12:12:01;17.20;;;10.40;;
37715;SDS011;23562;50.540;12.504;2023-02-18T12:14:30;15.45;;;9.52;;
37715;SDS011;23562;50.540;12.504;2023-02-18T12:22:38;10.02;;;7.40;;
37715;SDS011;23562;50.540;12.504;2023-02-18T12:25:19;15.60;;;8.40;;
37715;SDS011;23562;50.540;12.504;2023-02-18T12:30:54;6.78;;;4.88;;
37715;SDS011;23562;50.540;12.504;2023-02-18T12:38:29;5.70;;;4.47;;
37715;SDS011;23562;50.540;12.504;2023-02-18T12:43:27;5.05;;;3.80;;
37715;SDS011;23562;50.540;12.504;2023-02-18T12:46:04;5.15;;;3.83;;
37715;SDS011;23562;50.540;12.504;2023-02-18T12:51:20;8.77;;;4.70;;
37715;SDS011;23562;50.540;12.504;2023-02-18T12:54:02;14.48;;;5.97;;
37715;SDS011;23562;50.540;12.504;2023-02-18T13:07:19;18.27;;;7.72;;
37715;SDS011;23562;50.540;12.504;2023-02-18T13:09:57;9.48;;;5.55;;
37715;SDS011;23562;50.540;12.504;2023-02-18T13:17:45;9.15;;;5.47;;
37715;SDS011;23562;50.540;12.504;2023-02-18T13:20:13;4.78;;;3.22;;
37715;SDS011;23562;50.540;12.504;2023-02-18T13:22:41;3.55;;;2.40;;
37715;SDS011;23562;50.540;12.504;2023-02-18T13:25:10;5.43;;;2.97;;
37715;SDS011;23562;50.540;12.504;2023-02-18T13:27:52;5.53;;;2.60;;
37715;SDS011;23562;50.540;12.504;2023-02-18T13:30:29;4.93;;;2.90;;
37715;SDS011;23562;50.540;12.504;2023-02-18T13:32:57;4.72;;;2.30;;
37715;SDS011;23562;50.540;12.504;2023-02-18T13:35:30;4.15;;;2.90;;
37715;SDS011;23562;50.540;12.504;2023-02-18T13:40:42;4.20;;;2.83;;
37715;SDS011;23562;50.540;12.504;2023-02-18T13:46:02;7.22;;;4.30;;
37715;SDS011;23562;50.540;12.504;2023-02-18T13:48:28;4.68;;;2.70;;
37715;SDS011;23562;50.540;12.504;2023-02-18T13:50:53;4.95;;;3.60;;
37715;SDS011;23562;50.540;12.504;2023-02-18T13:55:51;6.07;;;4.40;;
37715;SDS011;23562;50.540;12.504;2023-02-18T13:58:25;5.15;;;2.40;;
37715;SDS011;23562;50.540;12.504;2023-02-18T14:00:56;5.65;;;2.40;;
37715;SDS011;23562;50.540;12.504;2023-02-18T14:03:31;4.50;;;2.90;;
37715;SDS011;23562;50.540;12.504;2023-02-18T14:06:00;5.25;;;3.33;;
37715;SDS011;23562;50.540;12.504;2023-02-18T14:08:30;16.63;;;8.43;;
37715;SDS011;23562;50.540;12.504;2023-02-18T14:11:22;12.60;;;5.20;;
37715;SDS011;23562;50.540;12.504;2023-02-18T14:19:33;13.07;;;7.18;;
37715;SDS011;23562;50.540;12.504;2023-02-18T14:24:52;7.07;;;5.18;;
37715;SDS011;23562;50.540;12.504;2023-02-18T14:27:19;4.07;;;2.40;;
37715;SDS011;23562;50.540;12.504;2023-02-18T14:29:47;3.15;;;2.50;;
37715;SDS011;23562;50.540;12.504;2023-02-18T14:32:15;5.03;;;4.18;;
37715;SDS011;23562;50.540;12.504;2023-02-18T14:42:02;6.05;;;4.10;;
37715;SDS011;23562;50.540;12.504;2023-02-18T14:44:35;9.52;;;4.50;;
37715;SDS011;23562;50.540;12.504;2023-02-18T14:47:08;7.03;;;4.95;;
37715;SDS011;23562;50.540;12.504;2023-02-18T14:49:45;12.45;;;6.75;;
37715;SDS011;23562;50.540;12.504;2023-02-18T14:52:18;7.20;;;4.05;;
37715;SDS011;23562;50.540;12.504;2023-02-18T14:54:46;3.92;;;2.25;;
37715;SDS011;23562;50.540;12.504;2023-02-18T14:57:13;3.72;;;2.42;;
37715;SDS011;23562;50.540;12.504;2023-02-18T14:59:39;5.25;;;2.95;;
37715;SDS011;23562;50.540;12.504;2023-02-18T15:02:13;6.70;;;3.25;;
37715;SDS011;23562;50.540;12.504;2023-02-18T15:04:38;4.15;;;2.67;;
37715;SDS011;23562;50.540;12.504;2023-02-18T15:07:04;7.13;;;3.70;;
37715;SDS011;23562;50.540;12.504;2023-02-18T15:09:32;11.95;;;6.10;;
37715;SDS011;23562;50.540;12.504;2023-02-18T15:14:29;8.95;;;4.28;;
37715;SDS011;23562;50.540;12.504;2023-02-18T15:16:54;8.65;;;4.25;;
37715;SDS011;23562;50.540;12.504;2023-02-18T15:19:21;3.88;;;2.35;;
37715;SDS011;23562;50.540;12.504;2023-02-18T15:21:49;3.28;;;2.20;;
37715;SDS011;23562;50.540;12.504;2023-02-18T15:24:25;6.75;;;4.22;;
37715;SDS011;23562;50.540;12.504;2023-02-18T15:26:53;12.13;;;5.93;;
37715;SDS011;23562;50.540;12.504;2023-02-18T15:29:21;18.25;;;8.70;;
37715;SDS011;23562;50.540;12.504;2023-02-18T15:31:46;11.23;;;6.10;;
37715;SDS011;23562;50.540;12.504;2023-02-18T15:37:16;7.07;;;4.20;;
37715;SDS011;23562;50.540;12.504;2023-02-18T15:39:41;20.35;;;7.03;;
37715;SDS011;23562;50.540;12.504;2023-02-18T15:42:08;18.30;;;7.13;;
37715;SDS011;23562;50.540;12.504;2023-02-18T15:44:36;10.33;;;5.50;;
37715;SDS011;23562;50.540;12.504;2023-02-18T15:47:03;10.10;;;3.95;;
37715;SDS011;23562;50.540;12.504;2023-02-18T15:49:29;10.50;;;4.70;;
37715;SDS011;23562;50.540;12.504;2023-02-18T15:51:55;8.25;;;4.18;;
37715;SDS011;23562;50.540;12.504;2023-02-18T15:54:21;8.68;;;3.70;;
37715;SDS011;23562;50.540;12.504;2023-02-18T15:56:51;11.23;;;5.35;;
37715;SDS011;23562;50.540;12.504;2023-02-18T15:59:18;12.02;;;5.68;;
37715;SDS011;23562;50.540;12.504;2023-02-18T16:01:51;20.08;;;10.10;;
37715;SDS011;23562;50.540;12.504;2023-02-18T16:04:17;33.03;;;14.63;;
37715;SDS011;23562;50.540;12.504;2023-02-18T16:06:45;11.40;;;4.75;;
37715;SDS011;23562;50.540;12.504;2023-02-18T16:09:24;32.90;;;15.88;;